GOGS

Cap Skirring Airport

Cap Skirring, Senegal
METAR GOGS 191500Z 20004KT 9999 FEW015 FEW030CB 31/25 Q1011
Observed Flight Rules
Sep-19 @ 15:00 UTC (8 hours ago) Visual Flight Rules
Wind Visibility Clouds
200° at 4 knots 10,000+ meters
  • Few at 1,500' AGL
  • Few at 3,000' AGL
Temperatures Readings
Current 31°C / 88°F
Dewpoint 25°C / 77°F
Humidity 70%
Altimeter 29.85" Hg
Pressure 1011 hPa
Elevation 13
METAR GOGS 191500Z 20004KT 9999 FEW015 FEW030CB 31/25 Q1011
Observed Flight Rules
Sep-19 @ 15:00 UTC
(8 hours ago)
VFR
Wind Visibility
200° at 4 knots 10,000+ meters
Clouds
  • Few at 1,500' AGL
  • Few at 3,000' AGL
Temperature Dewpoint
31°C / 88°F 25°C / 77°F
Humidity Altimeter Pressure
70% 29.85" Hg 1011 hPa